This is the latest recevied weather packets stored in our database for station/object N8SHA. If no packets are shown the sender has not sent any weather packets the latest 1 day(s).
| Time | Temp. | Humidity | Pressure | Rain* | Wind** | Luminosity | Snow |
|---|---|---|---|---|---|---|---|
| 1778249298 | 10.56° C | 52% | 1011.7 hPa | 0 mm | - | 68 W/m² | - |
| 1778248995 | 10.56° C | 51% | 1011.8 hPa | 0 mm | - | 67 W/m² | - |
| 1778247774 | 10° C | 55% | 1012.2 hPa | 0 mm | - | 57 W/m² | - |
| 1778247471 | 9.44° C | 57% | 1012 hPa | 0 mm | - | 56 W/m² | - |
| 1778246259 | 10° C | 57% | 1012 hPa | 0 mm | - | 65 W/m² | - |
| 1778245045 | 9.44° C | 58% | 1012.2 hPa | 0 mm | - | 54 W/m² | - |
| 1778244440 | 10° C | 58% | 1012.1 hPa | 0 mm | - | 272 W/m² | - |
| 1778243835 | 8.89° C | 67% | 1012.2 hPa | 0 mm | - | 61 W/m² | - |
| 1778243228 | 8.33° C | 71% | 1012.1 hPa | 0 mm | - | 52 W/m² | - |
| 1778242623 | 7.22° C | 77% | 1011.9 hPa | 0 mm | - | 106 W/m² | - |
| 1778241414 | 5.56° C | 80% | 1011.8 hPa | 0 mm | - | 36 W/m² | - |
| 1778240504 | 5° C | 81% | 1011.7 hPa | 0 mm | - | 33 W/m² | - |
| 1778240201 | 4.44° C | 82% | 1011.3 hPa | 0 mm | - | 32 W/m² | - |
| 1778235347 | 2.78° C | 86% | 1011.2 hPa | 0 mm | - | 1 W/m² | - |
| 1778234742 | 2.78° C | 86% | 1011.2 hPa | 0 mm | - | 0 W/m² | - |
| 1778234136 | 2.78° C | 86% | 1011.2 hPa | 0 mm | - | 0 W/m² | - |
| 1778231714 | 2.78° C | 87% | 1011.5 hPa | 0 mm | - | 0 W/m² | - |
| 1778231109 | 2.78° C | 86% | 1011.5 hPa | 0 mm | - | 0 W/m² | - |
| 1778229593 | 3.33° C | 84% | 1011.4 hPa | 0 mm | - | 0 W/m² | - |
| 1778228985 | 3.33° C | 84% | 1011.4 hPa | 0 mm | - | 0 W/m² | - |
| 1778228380 | 3.33° C | 83% | 1011.5 hPa | 0 mm | - | 0 W/m² | - |
| 1778227471 | 3.89° C | 82% | 1011.5 hPa | 0 mm | - | 0 W/m² | - |
| 1778225653 | 3.89° C | 80% | 1011.4 hPa | 0 mm | - | 0 W/m² | - |
* Rain latest hour (hover to see other rain measurements)
** Current wind speed in m/s (hover to see current wind gust speed)